Time;durP1;ratioP1;P1;durP2;ratioP2;P2;SDS_P1;SDS_P2;PMS_P1;PMS_P2;Temp;Humidity;BMP_temperature;BMP_pressure;BME280_temperature;BME280_humidity;BME280_pressure;Samples;Min_cycle;Max_cycle;Signal;HPM_P1;HPM_P2
2021/10/27 00:00:27;;;;;;;7.07;3.03;;;12.20;99.90;;;;;;5082630;28;20071;-46
2021/10/27 00:02:52;;;;;;;5.90;2.75;;;12.20;99.90;;;;;;5082414;28;20105;-50
2021/10/27 00:05:18;;;;;;;9.95;3.38;;;12.20;99.90;;;;;;5075513;28;20100;-46
2021/10/27 00:07:44;;;;;;;9.60;2.85;;;12.20;99.90;;;;;;5088159;28;20020;-47
2021/10/27 00:10:10;;;;;;;9.50;3.40;;;12.20;99.90;;;;;;5092143;28;20484;-48
2021/10/27 00:12:36;;;;;;;9.98;3.25;;;12.30;99.90;;;;;;5080652;28;20027;-47
2021/10/27 00:15:04;;;;;;;5.43;2.78;;;12.30;99.90;;;;;;5086270;28;20020;-47
2021/10/27 00:17:29;;;;;;;7.65;2.78;;;12.30;99.90;;;;;;5075608;28;20024;-49
2021/10/27 00:19:55;;;;;;;8.98;3.15;;;12.40;99.90;;;;;;5085451;28;20024;-47
2021/10/27 00:22:21;;;;;;;6.03;2.60;;;12.40;99.90;;;;;;5083450;28;20485;-50
2021/10/27 00:24:47;;;;;;;6.07;2.58;;;12.40;99.90;;;;;;5091871;28;20024;-47
2021/10/27 00:27:12;;;;;;;8.40;3.17;;;12.40;99.90;;;;;;5077030;28;20058;-48
2021/10/27 00:29:39;;;;;;;9.65;2.63;;;12.40;99.90;;;;;;5083231;28;20458;-47
2021/10/27 00:32:06;;;;;;;9.35;2.88;;;12.50;99.90;;;;;;5074780;28;20099;-48
2021/10/27 00:34:31;;;;;;;7.13;2.75;;;12.40;99.90;;;;;;5088085;28;20054;-46
2021/10/27 00:36:57;;;;;;;7.65;2.75;;;12.40;99.90;;;;;;5084743;28;20020;-50
2021/10/27 00:39:23;;;;;;;5.05;2.55;;;12.40;99.90;;;;;;5077055;28;20072;-49
2021/10/27 00:41:48;;;;;;;6.47;3.28;;;12.40;99.90;;;;;;5089333;28;20212;-47
2021/10/27 00:44:22;;;;;;;12.60;3.30;;;12.40;99.90;;;;;;5089316;28;20581;-48
2021/10/27 00:46:58;;;;;;;9.45;2.85;;;12.40;99.90;;;;;;5076677;28;20488;-48
2021/10/27 00:49:24;;;;;;;13.23;3.08;;;12.40;99.90;;;;;;5074926;28;20033;-46
2021/10/27 00:51:49;;;;;;;9.15;3.10;;;12.40;99.90;;;;;;5089360;28;20103;-47
2021/10/27 00:54:15;;;;;;;6.95;2.92;;;12.40;99.90;;;;;;5076871;28;20340;-48
2021/10/27 00:56:42;;;;;;;7.28;2.97;;;12.40;99.90;;;;;;5064417;28;20063;-49
2021/10/27 00:59:08;;;;;;;7.95;3.08;;;12.40;99.90;;;;;;5081201;28;20020;-48
2021/10/27 01:01:33;;;;;;;8.90;2.88;;;12.40;99.90;;;;;;5075346;28;20054;-47
2021/10/27 01:03:59;;;;;;;9.07;2.72;;;12.40;99.90;;;;;;5082066;28;20492;-52
2021/10/27 01:06:25;;;;;;;7.78;2.50;;;12.30;99.90;;;;;;5079843;28;20029;-46
2021/10/27 01:08:50;;;;;;;8.90;2.58;;;12.30;99.90;;;;;;5079043;28;20056;-47
2021/10/27 01:11:16;;;;;;;11.57;3.47;;;12.30;99.90;;;;;;5090011;28;20028;-48
2021/10/27 01:13:41;;;;;;;5.35;2.72;;;12.40;99.90;;;;;;5090370;28;20024;-48
2021/10/27 01:16:07;;;;;;;4.47;2.90;;;12.30;99.90;;;;;;5068878;28;20562;-47
2021/10/27 01:18:34;;;;;;;4.43;2.78;;;12.30;99.90;;;;;;5080747;28;20028;-47
2021/10/27 01:21:00;;;;;;;7.30;3.05;;;12.30;99.90;;;;;;5082495;28;20170;-48
2021/10/27 01:23:25;;;;;;;6.22;2.63;;;12.30;99.90;;;;;;5081274;28;20103;-48
2021/10/27 01:25:51;;;;;;;9.63;3.17;;;12.30;99.90;;;;;;5085464;28;20025;-47
2021/10/27 01:28:17;;;;;;;9.00;3.55;;;12.30;99.90;;;;;;5079378;28;20522;-53
2021/10/27 01:30:43;;;;;;;9.57;3.75;;;12.30;99.90;;;;;;5072098;28;20470;-48
2021/10/27 01:33:08;;;;;;;6.57;2.80;;;12.30;99.90;;;;;;5074444;28;20036;-46
2021/10/27 01:35:35;;;;;;;8.27;3.33;;;12.30;99.90;;;;;;5072932;28;20025;-47
2021/10/27 01:38:00;;;;;;;4.28;2.58;;;12.30;99.90;;;;;;5077208;28;20559;-48
2021/10/27 01:40:26;;;;;;;8.88;2.58;;;12.30;99.90;;;;;;5033539;28;1443927;-47
2021/10/27 01:42:53;;;;;;;6.07;2.78;;;12.40;99.90;;;;;;5075766;28;20036;-49
2021/10/27 01:45:19;;;;;;;8.00;3.28;;;12.40;99.90;;;;;;5081630;28;20046;-49
2021/10/27 01:47:45;;;;;;;5.50;2.63;;;12.40;99.90;;;;;;5078815;28;20110;-47
2021/10/27 01:50:12;;;;;;;6.85;2.40;;;12.40;99.90;;;;;;5078895;28;20020;-47
2021/10/27 01:52:37;;;;;;;6.03;2.92;;;12.50;99.90;;;;;;5076055;28;20359;-47
2021/10/27 01:55:04;;;;;;;11.75;3.70;;;12.50;99.90;;;;;;5090139;28;20103;-47
2021/10/27 01:57:30;;;;;;;8.27;3.22;;;12.50;99.90;;;;;;5089579;28;20497;-47
2021/10/27 01:59:55;;;;;;;8.15;2.92;;;12.50;99.90;;;;;;5090156;28;20024;-47
2021/10/27 02:02:21;;;;;;;8.30;3.38;;;12.60;99.90;;;;;;5090341;28;20043;-48
2021/10/27 02:04:46;;;;;;;8.57;3.03;;;12.60;99.90;;;;;;5079150;28;20013;-47
2021/10/27 02:07:11;;;;;;;9.73;3.10;;;12.60;99.90;;;;;;5080648;28;20420;-47
2021/10/27 02:09:37;;;;;;;6.00;2.80;;;12.60;99.90;;;;;;5083319;28;20508;-47
2021/10/27 02:12:04;;;;;;;8.70;3.38;;;12.60;99.90;;;;;;5082241;28;20027;-47
2021/10/27 02:14:31;;;;;;;7.15;2.83;;;12.60;99.90;;;;;;5090118;28;20266;-47
2021/10/27 02:16:57;;;;;;;4.78;2.88;;;12.60;99.90;;;;;;5076178;28;20373;-47
2021/10/27 02:19:22;;;;;;;4.72;2.88;;;12.60;99.90;;;;;;5080615;28;20028;-47
2021/10/27 02:21:48;;;;;;;7.35;3.22;;;12.60;99.90;;;;;;5089699;28;20032;-47
2021/10/27 02:24:13;;;;;;;8.35;3.60;;;12.60;99.90;;;;;;5075419;28;20067;-48
2021/10/27 02:26:39;;;;;;;9.40;3.40;;;12.60;99.90;;;;;;5087089;28;20115;-47
2021/10/27 02:29:04;;;;;;;5.95;3.33;;;12.60;99.90;;;;;;5088786;28;20093;-47
2021/10/27 02:31:30;;;;;;;7.05;3.03;;;12.60;99.90;;;;;;5074547;28;20096;-48
2021/10/27 02:33:56;;;;;;;8.05;3.33;;;12.60;99.90;;;;;;5080381;28;20016;-46
2021/10/27 02:36:21;;;;;;;7.13;2.95;;;12.60;99.90;;;;;;5083138;28;20459;-46
2021/10/27 02:38:47;;;;;;;6.03;3.17;;;12.60;99.90;;;;;;5077420;28;20520;-44
2021/10/27 02:41:14;;;;;;;9.68;3.00;;;12.60;99.90;;;;;;5089163;28;20060;-44
2021/10/27 02:43:40;;;;;;;7.63;3.60;;;12.60;99.90;;;;;;5073351;28;20081;-45
2021/10/27 02:46:06;;;;;;;7.40;3.60;;;12.60;99.90;;;;;;5074464;28;20029;-44
2021/10/27 02:48:32;;;;;;;4.47;2.97;;;12.60;99.90;;;;;;5072794;28;20216;-44
2021/10/27 02:50:57;;;;;;;7.88;3.45;;;12.60;99.90;;;;;;5054651;28;20420;-44
2021/10/27 02:53:23;;;;;;;9.20;3.97;;;12.60;99.90;;;;;;5080508;28;20043;-48
2021/10/27 02:55:48;;;;;;;11.70;3.95;;;12.60;99.90;;;;;;5088773;28;20028;-47
2021/10/27 02:58:14;;;;;;;6.60;3.35;;;12.60;99.90;;;;;;5070041;28;20050;-48
2021/10/27 03:00:39;;;;;;;7.32;3.35;;;12.60;99.90;;;;;;5081947;28;20502;-50
2021/10/27 03:03:05;;;;;;;7.70;3.92;;;12.70;99.90;;;;;;5069901;28;20032;-46
2021/10/27 03:05:31;;;;;;;9.57;3.83;;;12.60;99.90;;;;;;5075669;28;20489;-46
2021/10/27 03:07:57;;;;;;;5.25;3.20;;;12.60;99.90;;;;;;5074618;28;20027;-49
2021/10/27 03:10:22;;;;;;;9.57;3.85;;;12.60;99.90;;;;;;5068522;28;20028;-50
2021/10/27 03:12:48;;;;;;;6.20;3.67;;;12.60;99.90;;;;;;5065662;28;20368;-46
2021/10/27 03:15:14;;;;;;;5.85;3.25;;;12.60;99.90;;;;;;5080347;28;20278;-50
2021/10/27 03:17:40;;;;;;;6.82;3.80;;;12.60;99.90;;;;;;5077678;28;20509;-47
2021/10/27 03:20:06;;;;;;;6.88;3.47;;;12.60;99.90;;;;;;5089085;28;20031;-46
2021/10/27 03:22:32;;;;;;;10.20;3.92;;;12.60;99.90;;;;;;5070938;28;20034;-47
2021/10/27 03:24:57;;;;;;;8.13;3.83;;;12.60;99.90;;;;;;5072152;28;20103;-47
2021/10/27 03:27:23;;;;;;;9.93;4.40;;;12.60;99.90;;;;;;5087920;28;20174;-47
2021/10/27 03:29:48;;;;;;;7.95;3.22;;;12.60;99.90;;;;;;5088436;28;20371;-49
2021/10/27 03:32:14;;;;;;;9.45;3.88;;;12.60;99.90;;;;;;5073770;28;20040;-50
2021/10/27 03:34:40;;;;;;;7.28;3.95;;;12.60;99.90;;;;;;5064041;28;20454;-47
2021/10/27 03:37:07;;;;;;;8.63;4.00;;;12.60;99.90;;;;;;5073040;28;20025;-47
2021/10/27 03:39:32;;;;;;;8.15;3.67;;;12.60;99.90;;;;;;5068274;28;20032;-48
2021/10/27 03:41:58;;;;;;;8.95;4.07;;;12.50;99.90;;;;;;5070216;28;20097;-47
2021/10/27 03:44:23;;;;;;;7.47;4.10;;;12.50;99.90;;;;;;5079808;28;20515;-47
2021/10/27 03:46:50;;;;;;;6.97;3.97;;;12.50;99.90;;;;;;5072048;28;20056;-46
2021/10/27 03:49:15;;;;;;;6.35;4.03;;;12.50;99.90;;;;;;5067790;28;20028;-47
2021/10/27 03:51:41;;;;;;;8.07;5.13;;;12.60;99.90;;;;;;5071784;28;20021;-46
2021/10/27 03:54:07;;;;;;;6.40;4.50;;;12.60;99.90;;;;;;5079879;28;20023;-46
2021/10/27 03:56:32;;;;;;;6.63;3.85;;;12.60;99.90;;;;;;5062391;28;20104;-47
2021/10/27 03:58:58;;;;;;;8.48;4.32;;;12.50;99.90;;;;;;5066282;28;20028;-47
2021/10/27 04:01:23;;;;;;;8.23;4.40;;;12.60;99.90;;;;;;5057673;28;20743;-47
2021/10/27 04:03:48;;;;;;;7.75;4.85;;;12.50;99.90;;;;;;5076679;28;20047;-46
2021/10/27 04:06:14;;;;;;;9.13;4.80;;;12.50;99.90;;;;;;5071723;28;20093;-46
2021/10/27 04:08:40;;;;;;;9.70;5.15;;;12.50;99.90;;;;;;5068244;28;20055;-47
2021/10/27 04:11:05;;;;;;;7.78;4.30;;;12.50;99.90;;;;;;5070645;28;20031;-46
2021/10/27 04:13:31;;;;;;;7.10;4.85;;;12.50;99.90;;;;;;5079666;28;20354;-47
2021/10/27 04:15:57;;;;;;;11.27;4.82;;;12.50;99.90;;;;;;5082154;28;20029;-46
2021/10/27 04:18:22;;;;;;;6.95;4.95;;;12.50;99.90;;;;;;5064287;28;20031;-47
2021/10/27 04:20:48;;;;;;;5.95;4.50;;;12.50;99.90;;;;;;5070258;28;20118;-47
2021/10/27 04:23:13;;;;;;;12.80;5.40;;;12.50;99.90;;;;;;5077931;28;20167;-48
2021/10/27 04:25:39;;;;;;;8.00;4.75;;;12.50;99.90;;;;;;5067591;28;20025;-46
2021/10/27 04:28:06;;;;;;;8.00;5.38;;;12.50;99.90;;;;;;5077714;28;20028;-45
2021/10/27 04:30:32;;;;;;;11.45;5.57;;;12.50;99.90;;;;;;5073311;28;20021;-44
2021/10/27 04:32:58;;;;;;;7.28;5.03;;;12.50;99.90;;;;;;5066197;28;20490;-44
2021/10/27 04:35:25;;;;;;;10.40;5.10;;;12.50;99.90;;;;;;5069331;28;20035;-46
2021/10/27 04:37:51;;;;;;;6.57;5.07;;;12.50;99.90;;;;;;5067410;28;20014;-46
2021/10/27 04:40:18;;;;;;;7.50;4.82;;;12.50;99.90;;;;;;5083069;28;20040;-46
2021/10/27 04:42:44;;;;;;;9.05;5.10;;;12.50;99.90;;;;;;5088313;28;20035;-47
2021/10/27 04:45:10;;;;;;;11.90;5.82;;;12.50;99.90;;;;;;5073215;28;20112;-46
2021/10/27 04:47:37;;;;;;;13.00;5.82;;;12.50;99.90;;;;;;5076245;28;20033;-46
2021/10/27 04:50:04;;;;;;;11.80;5.20;;;12.60;99.90;;;;;;5082896;28;20513;-47
2021/10/27 04:52:29;;;;;;;8.02;5.35;;;12.60;99.90;;;;;;5073091;28;20033;-47
2021/10/27 04:54:56;;;;;;;12.25;5.85;;;12.60;99.90;;;;;;5055953;28;20110;-46
2021/10/27 04:57:22;;;;;;;10.63;5.45;;;12.60;99.90;;;;;;5059076;28;20025;-48
2021/10/27 04:59:48;;;;;;;11.13;5.97;;;12.60;99.90;;;;;;5064934;28;20393;-46
2021/10/27 05:02:16;;;;;;;10.45;5.50;;;12.60;99.90;;;;;;5059049;28;20021;-49
2021/10/27 05:04:42;;;;;;;12.68;5.65;;;12.60;99.90;;;;;;5064549;28;20195;-46
2021/10/27 05:07:10;;;;;;;11.43;5.90;;;12.60;99.90;;;;;;5061178;28;20109;-48
2021/10/27 05:09:35;;;;;;;10.90;5.70;;;12.60;99.90;;;;;;5061742;28;20119;-46
2021/10/27 05:12:03;;;;;;;13.07;6.25;;;12.60;99.90;;;;;;5060603;28;20442;-47
2021/10/27 05:14:32;;;;;;;10.57;5.43;;;12.60;99.90;;;;;;5062618;28;20021;-46
2021/10/27 05:16:58;;;;;;;9.02;5.68;;;12.50;99.90;;;;;;5060709;28;20490;-46
2021/10/27 05:19:23;;;;;;;9.88;5.63;;;12.60;99.90;;;;;;5070155;28;20035;-47
2021/10/27 05:21:49;;;;;;;11.80;5.40;;;12.60;99.90;;;;;;5079929;28;20051;-47
2021/10/27 05:24:15;;;;;;;13.35;6.05;;;12.60;99.90;;;;;;5084588;28;20040;-46
2021/10/27 05:26:41;;;;;;;14.02;6.82;;;12.50;99.90;;;;;;5090590;28;20157;-49
2021/10/27 05:29:06;;;;;;;14.10;6.30;;;12.60;99.90;;;;;;5075759;28;20025;-46
2021/10/27 05:31:32;;;;;;;10.60;6.15;;;12.60;99.90;;;;;;5060945;28;20024;-48
2021/10/27 05:33:57;;;;;;;17.48;7.03;;;12.50;99.90;;;;;;5061124;28;20609;-46
2021/10/27 05:36:23;;;;;;;10.13;5.63;;;12.50;99.90;;;;;;5059085;28;20310;-49
2021/10/27 05:38:48;;;;;;;11.05;5.07;;;12.50;99.90;;;;;;5059868;28;20087;-49
2021/10/27 05:41:14;;;;;;;9.80;5.00;;;12.50;99.90;;;;;;5067109;28;20039;-45
2021/10/27 05:43:39;;;;;;;9.48;4.38;;;12.50;99.90;;;;;;5071199;28;20043;-48
2021/10/27 05:46:06;;;;;;;7.95;4.18;;;12.50;99.90;;;;;;5063190;28;20032;-46
2021/10/27 05:48:36;;;;;;;12.25;4.45;;;12.40;99.90;;;;;;5067470;28;20025;-46
2021/10/27 05:56:17;;;;;;;10.98;4.15;;;12.40;99.90;;;;;;5071385;28;20059;-46
2021/10/27 05:58:43;;;;;;;12.00;4.55;;;12.50;99.90;;;;;;5070836;28;20029;-46
2021/10/27 06:01:09;;;;;;;8.60;3.83;;;12.40;99.90;;;;;;5068513;28;20106;-45
2021/10/27 06:03:34;;;;;;;8.40;3.78;;;12.40;99.90;;;;;;5073881;28;20033;-45
2021/10/27 06:05:59;;;;;;;6.55;3.75;;;12.40;99.90;;;;;;5090081;28;20035;-45
2021/10/27 06:08:25;;;;;;;8.00;4.53;;;12.40;99.90;;;;;;5086019;28;20025;-45
2021/10/27 06:10:55;;;;;;;7.97;4.28;;;12.40;99.90;;;;;;5069862;28;20429;-47
2021/10/27 06:13:21;;;;;;;9.13;4.50;;;12.40;99.90;;;;;;5069677;28;20024;-46
2021/10/27 06:15:46;;;;;;;9.57;4.72;;;12.40;99.90;;;;;;5070042;28;20081;-47
2021/10/27 06:18:12;;;;;;;8.63;5.10;;;12.40;99.90;;;;;;5069225;28;20024;-46
2021/10/27 06:20:37;;;;;;;13.45;4.10;;;12.40;99.90;;;;;;5069636;28;20020;-47
2021/10/27 06:23:03;;;;;;;9.75;4.80;;;12.40;99.90;;;;;;5069442;28;20206;-47
2021/10/27 06:25:31;;;;;;;6.13;3.90;;;12.40;99.90;;;;;;5064232;28;20020;-45
2021/10/27 06:28:05;;;;;;;8.77;4.35;;;12.40;99.90;;;;;;5066420;28;20107;-47
2021/10/27 06:36:10;;;;;;;9.50;4.32;;;12.50;99.90;;;;;;5069884;28;20059;-47
2021/10/27 06:38:52;;;;;;;7.20;4.38;;;12.50;99.90;;;;;;5064425;28;20566;-45
2021/10/27 06:46:46;;;;;;;9.35;3.67;;;12.50;99.90;;;;;;5050402;28;20493;-45
2021/10/27 06:49:11;;;;;;;11.75;4.40;;;12.50;99.90;;;;;;5060736;28;20037;-45
2021/10/27 06:51:37;;;;;;;7.68;3.70;;;12.60;99.90;;;;;;5068563;28;20025;-47
2021/10/27 06:54:04;;;;;;;7.05;3.50;;;12.60;99.90;;;;;;5067652;28;20127;-46
2021/10/27 06:56:30;;;;;;;6.00;4.40;;;12.60;99.90;;;;;;5056188;28;20104;-46
2021/10/27 07:01:50;;;;;;;9.23;4.38;;;12.70;99.90;;;;;;5061393;28;20375;-45
2021/10/27 07:17:21;;;;;;;10.75;5.40;;;12.70;99.90;;;;;;5067361;28;20547;-45
2021/10/27 07:19:47;;;;;;;11.93;5.35;;;12.70;99.90;;;;;;5064545;28;20029;-46
2021/10/27 07:22:14;;;;;;;8.55;5.43;;;12.80;99.90;;;;;;5048951;28;20059;-46
2021/10/27 07:24:41;;;;;;;9.38;5.35;;;12.80;99.90;;;;;;5068636;28;20501;-45
2021/10/27 07:27:07;;;;;;;12.40;5.20;;;12.90;99.90;;;;;;5051415;28;20044;-45
2021/10/27 07:29:34;;;;;;;13.63;5.88;;;12.90;99.90;;;;;;5061533;28;20025;-45
2021/10/27 07:32:01;;;;;;;7.93;5.68;;;12.90;99.90;;;;;;5055656;28;20021;-45
2021/10/27 07:34:33;;;;;;;10.73;6.07;;;12.90;99.90;;;;;;5053950;28;20012;-48
2021/10/27 07:42:27;;;;;;;8.80;5.45;;;13.00;99.90;;;;;;5047137;28;20117;-46
2021/10/27 07:44:53;;;;;;;10.43;4.88;;;13.00;99.90;;;;;;5046880;28;20029;-46
2021/10/27 07:47:19;;;;;;;9.95;4.78;;;13.00;99.90;;;;;;5046886;28;20520;-46
2021/10/27 07:49:45;;;;;;;8.98;4.95;;;13.00;99.90;;;;;;5049345;28;20033;-46
2021/10/27 07:52:11;;;;;;;10.98;4.57;;;13.00;99.90;;;;;;5058500;28;20497;-45
2021/10/27 07:54:38;;;;;;;19.63;5.70;;;13.10;99.90;;;;;;5065562;28;20115;-48
2021/10/27 07:57:04;;;;;;;8.10;4.97;;;13.10;99.90;;;;;;5048050;28;20398;-45
2021/10/27 07:59:30;;;;;;;8.75;4.43;;;13.10;99.90;;;;;;5061652;28;20020;-45
2021/10/27 08:01:57;;;;;;;10.25;4.72;;;13.10;99.90;;;;;;5053308;28;20021;-44
2021/10/27 08:04:23;;;;;;;10.13;5.30;;;13.10;99.90;;;;;;5062469;28;20090;-47
2021/10/27 08:06:48;;;;;;;9.25;4.32;;;13.20;99.90;;;;;;5067796;28;20103;-45
2021/10/27 08:09:14;;;;;;;8.75;4.00;;;13.20;99.90;;;;;;5061299;28;20029;-45
2021/10/27 08:11:40;;;;;;;7.70;4.65;;;13.20;99.90;;;;;;5051478;28;20242;-46
2021/10/27 08:14:06;;;;;;;6.38;4.50;;;13.20;99.90;;;;;;5051297;28;20013;-45
2021/10/27 08:16:33;;;;;;;11.82;4.50;;;13.30;99.90;;;;;;5068624;28;20029;-45
2021/10/27 08:18:59;;;;;;;10.75;4.07;;;13.30;99.90;;;;;;5061948;28;20021;-46
2021/10/27 08:21:25;;;;;;;8.32;4.00;;;13.40;99.90;;;;;;5062728;28;20051;-44
2021/10/27 08:23:52;;;;;;;6.78;3.88;;;13.30;99.90;;;;;;5071416;28;20029;-44
2021/10/27 08:26:22;;;;;;;7.90;4.07;;;13.30;99.90;;;;;;5055216;28;20035;-45
2021/10/27 08:28:55;;;;;;;8.43;3.70;;;13.30;99.90;;;;;;5050160;28;20041;-45
2021/10/27 08:31:42;;;;;;;7.85;4.10;;;13.30;99.90;;;;;;5060812;28;20017;-45
2021/10/27 08:34:14;;;;;;;4.80;3.28;;;13.40;99.90;;;;;;5070860;28;20385;-45
2021/10/27 08:36:41;;;;;;;9.88;4.43;;;13.40;99.90;;;;;;5062448;28;20128;-48
2021/10/27 08:39:08;;;;;;;11.55;4.40;;;13.40;99.90;;;;;;5059287;28;20128;-46
2021/10/27 08:41:36;;;;;;;11.85;5.07;;;13.40;99.90;;;;;;5062031;28;20029;-46
2021/10/27 08:44:02;;;;;;;8.20;4.43;;;13.40;99.90;;;;;;5062449;28;20025;-47
2021/10/27 08:46:29;;;;;;;10.85;4.32;;;13.40;99.90;;;;;;5060945;28;20448;-48
2021/10/27 08:48:56;;;;;;;11.05;5.40;;;13.40;99.90;;;;;;5059189;28;20061;-46
2021/10/27 08:51:26;;;;;;;7.40;4.75;;;13.40;99.90;;;;;;5061062;28;20021;-45
2021/10/27 08:53:52;;;;;;;14.68;5.05;;;13.40;99.90;;;;;;5060527;28;20017;-48
2021/10/27 08:56:17;;;;;;;10.55;5.40;;;13.40;99.90;;;;;;5059385;28;20277;-45
2021/10/27 08:58:48;;;;;;;5.63;4.32;;;13.50;99.90;;;;;;5061347;28;20453;-45
2021/10/27 09:06:38;;;;;;;12.70;4.53;;;13.50;99.90;;;;;;5060088;28;20030;-45
2021/10/27 09:09:32;;;;;;;10.05;5.40;;;13.60;99.90;;;;;;5061870;28;20012;-46
2021/10/27 09:35:01;;;;;;;11.35;4.65;;;14.30;99.90;;;;;;5058024;28;20690;-47
2021/10/27 09:37:43;;;;;;;6.82;4.10;;;14.40;99.90;;;;;;5062334;28;20509;-47
2021/10/27 09:55:38;;;;;;;10.00;4.45;;;14.90;99.90;;;;;;5057534;28;20548;-48
2021/10/27 10:05:20;;;;;;;12.75;4.70;;;15.10;99.90;;;;;;5074198;28;20051;-45
2021/10/27 10:07:47;;;;;;;8.85;4.03;;;15.20;99.90;;;;;;5069480;28;20017;-46
2021/10/27 10:10:14;;;;;;;5.57;3.60;;;15.30;99.90;;;;;;5064233;28;20024;-47
2021/10/27 10:12:49;;;;;;;10.02;4.10;;;15.50;99.90;;;;;;5050876;28;20025;-46
2021/10/27 10:15:20;;;;;;;5.28;3.30;;;15.60;99.90;;;;;;5075333;28;20094;-45
2021/10/27 10:17:46;;;;;;;7.43;4.38;;;15.50;99.90;;;;;;5068400;28;20061;-45
2021/10/27 10:20:19;;;;;;;12.50;4.28;;;15.50;99.90;;;;;;5072438;28;20464;-45
2021/10/27 10:22:45;;;;;;;7.95;3.03;;;15.50;99.90;;;;;;5061234;28;20549;-45
2021/10/27 10:25:13;;;;;;;4.20;2.97;;;15.50;99.90;;;;;;5059648;28;20024;-45
2021/10/27 10:27:40;;;;;;;5.80;3.20;;;15.60;99.90;;;;;;5070977;28;20067;-46
2021/10/27 10:30:34;;;;;;;5.18;3.20;;;15.60;99.90;;;;;;5066925;28;20028;-45
2021/10/27 10:33:01;;;;;;;5.00;3.60;;;15.80;99.90;;;;;;5069612;28;20481;-45
2021/10/27 10:35:38;;;;;;;5.32;3.22;;;15.70;99.90;;;;;;5056934;28;20052;-45
2021/10/27 10:38:37;;;;;;;9.90;3.83;;;15.60;99.90;;;;;;5066392;28;20044;-47
2021/10/27 10:41:30;;;;;;;5.35;3.08;;;15.60;99.90;;;;;;5054845;28;20514;-48
2021/10/27 10:56:13;;;;;;;5.00;3.03;;;15.80;99.90;;;;;;5059525;28;20028;-45
2021/10/27 11:37:48;;;;;;;7.28;2.75;;;15.40;99.90;;;;;;5060840;28;20056;-44
2021/10/27 11:40:37;;;;;;;4.85;2.65;;;15.30;99.90;;;;;;5063889;28;20025;-48
2021/10/27 11:43:15;;;;;;;9.05;3.00;;;15.30;99.90;;;;;;5071859;28;20071;-46
2021/10/27 11:45:55;;;;;;;5.00;2.83;;;15.20;99.90;;;;;;5067222;28;20051;-46
2021/10/27 11:48:53;;;;;;;9.68;2.95;;;15.30;99.90;;;;;;5059902;28;20414;-46
2021/10/27 11:51:14;;;;;;;6.70;2.63;;;15.40;99.90;;;;;;5058335;28;20029;-45
2021/10/27 11:53:42;;;;;;;4.03;3.10;;;15.40;99.90;;;;;;5052055;28;20029;-49
2021/10/27 11:56:16;;;;;;;4.55;2.80;;;15.50;99.90;;;;;;5054414;28;20495;-44
2021/10/27 11:58:45;;;;;;;4.15;2.70;;;15.40;99.90;;;;;;5054942;28;20161;-46
2021/10/27 12:01:33;;;;;;;6.15;2.78;;;15.40;99.90;;;;;;5073935;28;20036;-48
2021/10/27 12:04:08;;;;;;;6.85;2.85;;;15.50;99.90;;;;;;5057126;28;20025;-47
2021/10/27 12:06:42;;;;;;;6.75;2.70;;;15.50;99.90;;;;;;5060918;28;20123;-46
2021/10/27 12:14:24;;;;;;;7.43;2.75;;;15.60;99.90;;;;;;5060301;28;20070;-47
2021/10/27 12:19:29;;;;;;;5.45;2.85;;;15.70;99.90;;;;;;5063224;28;20493;-49
2021/10/27 12:21:54;;;;;;;5.70;2.92;;;15.70;99.90;;;;;;5063642;28;20036;-47
2021/10/27 12:24:26;;;;;;;5.07;2.53;;;15.70;99.90;;;;;;5069779;28;20058;-48
2021/10/27 12:27:08;;;;;;;3.58;2.30;;;15.70;99.90;;;;;;5059936;28;20028;-45
2021/10/27 12:29:36;;;;;;;12.60;2.92;;;15.70;99.90;;;;;;5067955;28;20024;-46
2021/10/27 12:32:01;;;;;;;6.00;2.35;;;15.80;99.90;;;;;;5074061;28;20119;-46
2021/10/27 12:34:27;;;;;;;3.22;2.38;;;15.80;99.90;;;;;;5052588;28;20121;-47
2021/10/27 12:36:54;;;;;;;5.28;2.45;;;15.80;99.90;;;;;;5067536;28;20042;-48
2021/10/27 12:39:27;;;;;;;5.70;2.35;;;15.80;99.90;;;;;;5074650;28;20044;-45
2021/10/27 12:42:04;;;;;;;6.68;3.10;;;15.90;99.90;;;;;;5064865;28;20028;-47
2021/10/27 12:44:30;;;;;;;4.50;2.67;;;15.80;99.90;;;;;;5051306;28;20076;-48
2021/10/27 12:47:29;;;;;;;3.17;2.05;;;15.80;99.90;;;;;;5068805;28;20111;-47
2021/10/27 12:50:21;;;;;;;6.43;2.53;;;15.80;99.90;;;;;;5064643;28;20063;-46
2021/10/27 12:52:51;;;;;;;6.90;2.50;;;15.90;99.90;;;;;;5060207;28;20033;-46
2021/10/27 12:55:28;;;;;;;9.27;2.78;;;15.90;99.90;;;;;;5065548;28;20070;-48
2021/10/27 12:57:54;;;;;;;7.30;2.25;;;15.90;99.90;;;;;;5051270;28;20302;-47
2021/10/27 13:00:45;;;;;;;4.03;2.50;;;15.80;99.90;;;;;;5071282;28;20043;-47
2021/10/27 13:06:17;;;;;;;5.57;2.95;;;15.70;99.90;;;;;;5059367;28;19914;-48
2021/10/27 13:16:40;;;;;;;2.30;1.90;;;15.60;99.90;;;;;;5071135;28;20126;-45
2021/10/27 13:19:12;;;;;;;5.45;2.40;;;15.60;99.90;;;;;;5072444;28;20028;-46
2021/10/27 13:31:55;;;;;;;9.02;3.10;;;15.60;99.90;;;;;;5072087;28;20090;-45
2021/10/27 13:34:20;;;;;;;4.25;2.80;;;15.50;99.90;;;;;;5063335;28;20028;-46
2021/10/27 13:36:46;;;;;;;5.05;3.28;;;15.60;99.90;;;;;;5079713;28;20035;-46
2021/10/27 13:39:11;;;;;;;6.35;2.90;;;15.60;99.90;;;;;;5060828;28;20028;-45
2021/10/27 13:41:37;;;;;;;6.57;3.17;;;15.60;99.90;;;;;;5057470;28;20021;-46
2021/10/27 13:44:12;;;;;;;7.65;2.97;;;15.60;99.90;;;;;;5061814;28;20104;-46
2021/10/27 13:46:53;;;;;;;7.38;3.30;;;15.60;99.90;;;;;;5058154;28;20428;-45
2021/10/27 13:49:29;;;;;;;;;;;15.60;99.90;;;;;;5074371;28;20366;-46
2021/10/27 14:06:07;;;;;;;7.95;2.80;;;15.80;99.90;;;;;;5064854;28;20047;-49
2021/10/27 14:11:20;;;;;;;6.32;2.75;;;15.80;99.90;;;;;;5067347;28;20023;-46
2021/10/27 14:19:05;;;;;;;9.98;3.70;;;15.80;99.90;;;;;;5058242;28;20127;-46
2021/10/27 15:21:44;;;;;;;3.88;2.53;;;15.30;99.90;;;;;;5087511;28;20520;-46
2021/10/27 15:24:35;;;;;;;5.90;2.80;;;15.20;99.90;;;;;;5080640;28;20028;-46
2021/10/27 15:30:04;;;;;;;4.40;2.45;;;15.10;99.90;;;;;;5080340;28;20031;-46
2021/10/27 15:35:05;;;;;;;8.50;3.10;;;14.90;99.90;;;;;;5050385;28;20036;-46
2021/10/27 15:45:36;;;;;;;4.68;2.60;;;14.70;99.90;;;;;;5084334;28;20078;-46
2021/10/27 15:50:50;;;;;;;4.53;2.38;;;14.60;99.90;;;;;;5077982;28;20027;-46
2021/10/27 15:53:17;;;;;;;7.45;2.75;;;14.60;99.90;;;;;;5089868;28;20024;-46
2021/10/27 15:55:43;;;;;;;6.18;3.03;;;14.60;99.90;;;;;;5074718;28;20021;-48
2021/10/27 15:58:09;;;;;;;8.77;2.92;;;14.50;99.90;;;;;;5080346;28;20032;-46
2021/10/27 16:00:38;;;;;;;5.95;2.67;;;14.50;99.90;;;;;;5087884;28;20027;-47
2021/10/27 16:03:06;;;;;;;4.00;2.55;;;14.50;99.90;;;;;;5080929;28;20178;-46
2021/10/27 16:05:34;;;;;;;8.63;2.80;;;14.40;99.90;;;;;;5089077;28;20028;-45
2021/10/27 16:08:00;;;;;;;6.15;2.63;;;14.50;99.90;;;;;;5067949;28;20107;-46
2021/10/27 16:10:25;;;;;;;5.95;3.10;;;14.40;99.90;;;;;;5085491;28;20442;-46
2021/10/27 16:12:51;;;;;;;6.30;3.10;;;14.30;99.90;;;;;;5071227;28;20016;-47
2021/10/27 16:15:25;;;;;;;12.40;3.30;;;14.20;99.90;;;;;;5084202;28;20022;-48
2021/10/27 16:17:52;;;;;;;8.00;3.00;;;14.20;99.90;;;;;;5076224;28;20021;-46
2021/10/27 16:20:18;;;;;;;12.20;3.50;;;14.20;99.90;;;;;;5084312;28;20035;-46
2021/10/27 16:22:43;;;;;;;9.00;3.72;;;14.20;99.90;;;;;;5081639;28;20032;-45
2021/10/27 16:25:11;;;;;;;7.53;4.13;;;14.10;99.90;;;;;;5083167;28;20039;-46
2021/10/27 16:27:36;;;;;;;9.23;4.32;;;14.10;99.90;;;;;;5082701;28;20047;-46
2021/10/27 16:30:04;;;;;;;8.35;4.68;;;14.20;99.90;;;;;;5085815;28;20642;-46
2021/10/27 16:32:30;;;;;;;9.95;4.50;;;14.30;99.90;;;;;;5087510;28;20454;-47
2021/10/27 16:34:56;;;;;;;8.45;4.38;;;14.30;99.90;;;;;;5084966;28;20119;-46
2021/10/27 16:37:24;;;;;;;12.18;4.60;;;14.20;99.90;;;;;;5089847;28;20074;-46
2021/10/27 16:39:50;;;;;;;9.30;4.68;;;14.20;99.90;;;;;;5077983;28;20063;-46
2021/10/27 16:42:16;;;;;;;9.57;5.13;;;14.20;99.90;;;;;;5084745;28;20051;-46
2021/10/27 16:44:41;;;;;;;10.38;4.82;;;14.20;99.90;;;;;;5091131;28;20035;-45
2021/10/27 16:47:07;;;;;;;9.68;4.75;;;14.20;99.90;;;;;;5082395;28;20036;-46
2021/10/27 16:49:32;;;;;;;7.88;4.75;;;14.20;99.90;;;;;;5092823;28;20032;-46
2021/10/27 16:51:58;;;;;;;12.13;4.65;;;14.20;99.90;;;;;;5076371;28;20020;-46
2021/10/27 16:54:23;;;;;;;13.98;5.30;;;14.20;99.90;;;;;;5087941;28;20016;-47
2021/10/27 16:56:48;;;;;;;10.85;5.53;;;14.10;99.90;;;;;;5083983;28;20401;-46
2021/10/27 16:59:14;;;;;;;11.85;5.35;;;14.20;99.90;;;;;;5086041;28;20121;-45
2021/10/27 17:01:40;;;;;;;11.90;5.55;;;14.20;99.90;;;;;;5092655;28;20028;-47
2021/10/27 17:04:05;;;;;;;9.77;5.03;;;14.20;99.90;;;;;;5073503;28;20432;-48
2021/10/27 17:06:33;;;;;;;13.32;5.88;;;14.20;99.90;;;;;;5087632;28;20519;-48
2021/10/27 17:08:59;;;;;;;9.23;5.68;;;14.20;99.90;;;;;;5091581;28;20012;-46
2021/10/27 17:11:24;;;;;;;13.07;5.95;;;14.10;99.90;;;;;;5092338;28;20577;-46
2021/10/27 17:13:50;;;;;;;9.65;5.60;;;14.10;99.90;;;;;;5077631;28;20020;-45
2021/10/27 17:16:16;;;;;;;9.52;5.55;;;14.10;99.90;;;;;;5086800;28;20016;-47